Denver, CO

6:01 AM MDT on July 25, 2016 (GMT -0600)
Geography and Env. Sciences, CU Denver | | Change Station

Elev 5225 ft 39.75 °N, 105.00 °W | Updated 55 seconds ago

Partly Cloudy
Partly Cloudy
62.3 °F
Feels Like 62.3 °F
N
0.0
Wind Variable Wind from WSW
Gusts 0.0 mph

Today
High -- | Low -- °F
--% Chance of Precip.
Yesterday
High -- | Low -- °F
Precip. -- in
Pressure 30.05 in
Visibility 10.0 miles
Clouds Few 20000 ft
Dew Point 56 °F
Humidity 79%
Rainfall 0.00 in
Snow Depth Not available.
5:53 AM 8:19 PM
Waning Gibbous, 66% visible
METAR KAPA 251153Z 12004KT 10SM FEW200 14/11 A3024 RMK AO2 SLP176 T01440106 10172 20139 56009
Pressure 30.05 in
Visibility 10.0 miles
Clouds Few 20000 ft
Dew Point 56 °F
Humidity 79%
Rainfall 0.00 in
Snow Depth Not available.
5:53 AM 8:19 PM
Waning Gibbous, 66% visible
METAR KAPA 251153Z 12004KT 10SM FEW200 14/11 A3024 RMK AO2 SLP176 T01440106 10172 20139 56009

10-Day Weather Forecast

Almanac

Astronomy

Jul. 25, 2016 Rise Set
Actual Time
Civil Twilight
Nautical Twilight
Astronomical Twilight
Moon
Length of Visible Light
Length of Day
Tomorrow will be .
, % of the Moon is Illuminated

Today's Extremes

State Highs State Lows

Community

WunderPhotos

Upload Photos

1,927,294 photos uploaded!

WunderBlog® & News

Nearby

Air Quality

  Air Quality AQ Index Pollutant
Not available.

Snow Depth

Station Depth Elevation

Earthquake Activity

City Distance Mag. Time & Date
Minimum magnitude displayed is 2.5.

Coastal Water Temperatures

Place Temperature

Stations

Nearby Weather Stations

Station Location Temp. Windchill Dew Point Humidity Wind Precip. Elev Updated Type
                   

Watches & Warnings

There are currently no watches in effect.